Time;durP1;ratioP1;P1;durP2;ratioP2;P2;SDS_P1;SDS_P2;PMS_P1;PMS_P2;Temp;Humidity;BMP_temperature;BMP_pressure;BME280_temperature;BME280_humidity;BME280_pressure;Samples;Min_cycle;Max_cycle;Signal;HPM_P1;HPM_P2
2021/03/26 06:30:16;;;;;;;131.80;57.85;;;;;;;4.15;70.03;100972.73;1732757;77;27062;31
2021/03/26 06:33:11;;;;;;;124.42;56.37;;;;;;;4.19;69.78;100979.20;1757387;79;25311;-63
2021/03/26 06:36:16;;;;;;;125.07;57.98;;;;;;;4.21;69.72;100984.59;1756672;79;25610;-63
2021/03/26 06:39:07;;;;;;;132.30;59.85;;;;;;;4.24;69.84;100981.94;1755739;80;25289;-61
2021/03/26 06:42:29;;;;;;;127.35;57.10;;;;;;;4.35;69.86;100981.01;1736269;80;25780;-63
2021/03/26 06:45:45;;;;;;;128.20;56.90;;;;;;;4.40;69.65;100982.41;1718091;81;25701;-64
2021/03/26 06:48:32;;;;;;;133.35;59.67;;;;;;;4.45;69.41;100986.48;1683057;83;25633;-63
2021/03/26 06:51:16;;;;;;;132.30;58.58;;;;;;;4.46;69.20;100992.64;1723087;82;25816;-62
2021/03/26 06:54:09;;;;;;;128.60;58.17;;;;;;;4.48;69.26;100993.22;1710253;82;25343;-62
2021/03/26 06:57:02;;;;;;;116.53;57.25;;;;;;;4.54;69.18;100990.86;1710533;81;25844;-62
2021/03/26 06:59:52;;;;;;;126.62;58.90;;;;;;;4.56;68.80;100991.41;1727846;80;25624;-65
2021/03/26 07:03:02;;;;;;;126.62;58.52;;;;;;;4.56;68.76;100992.75;1743190;79;25344;-64
2021/03/26 07:05:48;;;;;;;;;;;;;;;4.58;68.70;100992.00;1755202;79;25382;-62
2021/03/26 07:08:29;;;;;;;123.85;56.85;;;;;;;4.58;68.62;100992.00;1729699;79;25811;-62
2021/03/26 07:11:19;;;;;;;129.53;62.33;;;;;;;4.62;68.92;100994.98;1765975;80;27123;-63
2021/03/26 07:14:11;;;;;;;129.85;58.75;;;;;;;4.74;69.41;100994.30;1752443;80;25719;-62
2021/03/26 07:17:06;;;;;;;127.82;57.65;;;;;;;4.85;68.99;100995.20;1740872;81;25751;-63
2021/03/26 07:19:54;;;;;;;131.10;59.00;;;;;;;4.96;68.71;100998.27;1742429;81;25594;-62
2021/03/26 07:22:47;;;;;;;131.60;58.63;;;;;;;4.97;68.33;100995.88;1730962;81;25939;-63
2021/03/26 07:25:45;;;;;;;133.10;61.28;;;;;;;4.98;68.19;100992.65;1734402;81;25819;-63
2021/03/26 07:28:35;;;;;;;123.18;56.65;;;;;;;5.08;68.46;100994.62;1742145;81;25640;-63
2021/03/26 07:31:28;;;;;;;125.33;58.28;;;;;;;5.14;68.17;100993.07;1740829;81;25718;-63
2021/03/26 07:34:30;;;;;;;122.25;57.73;;;;;;;5.21;67.80;100988.30;1728693;80;25826;-63
2021/03/26 07:37:20;;;;;;;119.00;55.48;;;;;;;5.29;67.71;100990.23;1732904;80;25610;-63
2021/03/26 07:40:05;;;;;;;116.88;53.90;;;;;;;5.35;67.78;100993.23;1751956;79;25724;-63
2021/03/26 07:43:06;;;;;;;124.50;55.50;;;;;;;5.47;67.86;100997.88;1753096;80;25732;-63
2021/03/26 07:46:11;;;;;;;123.05;56.48;;;;;;;5.54;67.37;101003.83;1760251;79;25378;-62
2021/03/26 07:49:01;;;;;;;129.53;57.95;;;;;;;5.64;67.25;101000.96;1754706;80;25793;-62
2021/03/26 07:51:45;;;;;;;131.67;57.90;;;;;;;5.78;67.43;101004.25;1746132;80;25385;-62
2021/03/26 07:54:54;;;;;;;125.50;59.10;;;;;;;5.90;66.95;101015.34;1722306;81;25926;-63
2021/03/26 07:58:02;;;;;;;125.60;58.63;;;;;;;5.99;66.78;101008.42;1744952;80;25647;-62
2021/03/26 08:00:38;;;;;;;124.78;58.15;;;;;;;6.11;66.64;101010.39;1752222;80;25838;-63
2021/03/26 08:03:16;;;;;;;131.25;59.80;;;;;;;6.31;67.18;101019.06;1765918;78;25762;-63
2021/03/26 08:05:51;;;;;;;125.70;58.28;;;;;;;6.53;67.16;101017.53;1761190;80;25363;-63
2021/03/26 08:08:49;;;;;;;125.85;58.52;;;;;;;6.70;66.78;101025.38;1748082;80;25815;-64
2021/03/26 08:11:49;;;;;;;127.60;58.13;;;;;;;6.90;66.01;101025.17;1747332;79;25822;-64
2021/03/26 08:14:39;;;;;;;128.90;61.88;;;;;;;7.04;65.93;101021.42;1743968;80;25668;-63
2021/03/26 08:17:29;;;;;;;126.62;60.20;;;;;;;7.26;65.56;101027.90;1754360;79;26226;-65
2021/03/26 08:20:06;;;;;;;120.92;60.48;;;;;;;7.45;65.53;101022.23;1746719;79;25713;-63
2021/03/26 08:22:59;;;;;;;127.78;63.00;;;;;;;7.64;64.25;101031.11;1758273;79;25777;-63
2021/03/26 08:25:42;;;;;;;125.85;58.50;;;;;;;7.70;64.31;101027.34;1757947;79;25718;-64
2021/03/26 08:28:45;;;;;;;123.20;58.20;;;;;;;7.89;64.08;101021.39;1760242;79;25786;-64
2021/03/26 08:32:01;;;;;;;122.58;60.35;;;;;;;8.04;63.29;101026.19;1743042;80;25762;-64
2021/03/26 08:35:03;;;;;;;118.97;57.85;;;;;;;8.21;62.48;101027.22;1707894;82;25783;-63
2021/03/26 08:37:44;;;;;;;121.75;59.10;;;;;;;8.25;61.03;101042.30;1732757;80;25792;-63
2021/03/26 08:40:16;;;;;;;114.55;58.23;;;;;;;8.28;61.85;101030.17;1729198;82;25521;-63
2021/03/26 08:42:49;;;;;;;114.15;58.20;;;;;;;8.39;61.89;101039.30;1740066;82;25581;-60
2021/03/26 08:45:32;;;;;;;122.87;58.05;;;;;;;8.53;62.26;101034.14;1727576;81;25791;-64
2021/03/26 08:48:20;;;;;;;118.37;58.52;;;;;;;8.76;62.00;101023.22;1737524;82;25567;-63
2021/03/26 08:51:17;;;;;;;117.40;59.20;;;;;;;8.94;60.38;101029.06;1718968;82;26547;-63
2021/03/26 08:54:16;;;;;;;115.40;58.38;;;;;;;9.12;61.40;101027.58;1726682;80;25762;-63
2021/03/26 08:57:07;;;;;;;126.45;61.37;;;;;;;9.29;60.87;101029.33;1735604;80;25735;-61
2021/03/26 09:00:09;;;;;;;112.03;57.08;;;;;;;9.52;60.61;101029.16;1729609;82;25537;-61
2021/03/26 09:03:02;;;;;;;111.72;55.88;;;;;;;9.99;60.78;101020.59;1764081;80;25845;-63
2021/03/26 09:06:12;;;;;;;115.37;58.15;;;;;;;10.73;59.76;101021.07;1765430;79;26228;-63
2021/03/26 09:08:47;;;;;;;100.70;53.02;;;;;;;11.28;59.56;101030.55;1765733;80;25708;-64
2021/03/26 09:12:11;;;;;;;102.58;56.28;;;;;;;11.78;56.67;101026.70;1765574;80;25638;-63
2021/03/26 09:15:16;;;;;;;101.55;55.17;;;;;;;12.15;55.78;101016.27;1727353;81;25840;-63
2021/03/26 09:18:03;;;;;;;96.08;53.78;;;;;;;12.78;56.74;101015.22;1734335;81;25569;-63
2021/03/26 09:20:41;;;;;;;98.62;53.68;;;;;;;13.52;56.86;101007.25;1742540;80;25713;-63
2021/03/26 09:23:34;;;;;;;96.22;54.20;;;;;;;14.41;55.27;101006.47;1722644;81;25727;-63
2021/03/26 09:26:29;;;;;;;100.70;53.83;;;;;;;14.94;51.96;101010.86;1731170;80;25686;-63
2021/03/26 09:29:00;;;;;;;94.90;53.42;;;;;;;15.05;48.48;101011.32;1745015;81;25393;-63
2021/03/26 09:31:47;;;;;;;85.53;51.02;;;;;;;15.46;50.99;101031.24;1718150;81;25664;-64
2021/03/26 09:34:29;;;;;;;99.42;54.88;;;;;;;15.70;49.17;101024.45;1738676;81;25721;-63
2021/03/26 09:37:40;;;;;;;87.02;52.98;;;;;;;16.11;48.92;101034.52;1726535;81;25750;-62
2021/03/26 09:40:22;;;;;;;87.55;51.25;;;;;;;16.37;48.13;101029.70;1718778;80;25532;-63
2021/03/26 09:43:05;;;;;;;87.57;52.30;;;;;;;16.71;44.78;101037.44;1848499;76;26354;-63
2021/03/26 09:45:43;;;;;;;84.75;54.70;;;;;;;16.67;45.83;101038.42;1796501;77;25300;-63
2021/03/26 09:48:37;;;;;;;81.57;50.10;;;;;;;17.00;46.71;101039.91;1787792;78;25920;-63
2021/03/26 09:51:27;;;;;;;81.75;50.60;;;;;;;17.25;45.90;101040.03;1813100;78;25610;-63
2021/03/26 09:53:56;;;;;;;87.45;51.68;;;;;;;17.51;46.03;101035.08;1796202;78;25608;-64
2021/03/26 09:56:40;;;;;;;80.60;49.40;;;;;;;17.78;43.11;101035.60;1783870;80;25515;-62
2021/03/26 09:59:23;;;;;;;85.53;55.00;;;;;;;17.75;41.19;101029.44;1787044;80;25313;-63
2021/03/26 10:02:01;;;;;;;80.28;49.73;;;;;;;18.02;43.10;101032.11;1801202;77;25744;-63
2021/03/26 10:04:39;;;;;;;81.12;53.08;;;;;;;18.78;43.59;101021.54;1792971;78;25482;-62
2021/03/26 10:07:32;;;;;;;79.32;52.73;;;;;;;19.53;40.91;101027.50;1785991;80;25557;-63
2021/03/26 10:12:41;;;;;;;75.20;50.88;;;;;;;19.93;38.58;101022.48;1849194;76;25539;-63
2021/03/26 10:15:22;;;;;;;79.77;53.90;;;;;;;20.24;39.63;101015.36;1819458;78;25418;-63
2021/03/26 10:17:59;;;;;;;82.02;51.53;;;;;;;20.96;39.94;101024.61;1819275;78;25870;-64
2021/03/26 10:20:35;;;;;;;80.97;50.75;;;;;;;21.36;38.15;101017.89;1819228;78;25435;-63
2021/03/26 10:23:36;;;;;;;77.97;51.85;;;;;;;21.71;37.66;101018.91;1819267;78;25501;-64
2021/03/26 10:26:11;;;;;;;72.30;48.48;;;;;;;21.97;36.05;101011.30;1819263;78;25462;-64
2021/03/26 10:28:52;;;;;;;62.73;42.62;;;;;;;21.78;35.43;101014.93;1787824;78;25564;-63
2021/03/26 10:31:26;;;;;;;64.85;42.10;;;;;;;21.49;34.50;101013.62;1818456;78;25915;-64
2021/03/26 10:33:57;;;;;;;57.48;38.55;;;;;;;20.87;34.60;101013.02;1787529;78;25332;-63
2021/03/26 10:36:49;;;;;;;55.08;38.30;;;;;;;20.27;33.33;101010.53;1819400;78;25585;-63
2021/03/26 10:39:29;;;;;;;60.45;41.33;;;;;;;19.91;32.79;101010.48;1819295;78;25249;-64
2021/03/26 10:42:07;;;;;;;58.95;40.08;;;;;;;20.07;34.63;101010.45;1819357;78;25539;-63
2021/03/26 10:45:02;;;;;;;62.40;40.05;;;;;;;20.51;35.85;101005.36;1819254;77;25770;-64
2021/03/26 10:47:41;;;;;;;65.85;44.65;;;;;;;21.80;35.75;101000.20;1816775;79;25399;-64
2021/03/26 10:50:22;;;;;;;56.15;38.90;;;;;;;22.35;33.66;101002.04;1817185;77;25507;-64
2021/03/26 10:52:55;;;;;;;55.83;36.25;;;;;;;22.06;30.35;100991.16;1816934;79;25430;-63
2021/03/26 10:55:29;;;;;;;52.48;36.95;;;;;;;21.71;32.44;100991.39;1817289;79;25254;-63
2021/03/26 10:58:13;;;;;;;50.60;35.68;;;;;;;21.86;32.22;100995.95;1809869;78;26655;-63
2021/03/26 11:00:46;;;;;;;47.40;35.40;;;;;;;21.87;31.97;100987.92;1819134;78;25619;-64
2021/03/26 11:03:24;;;;;;;48.60;35.60;;;;;;;22.40;32.39;100990.50;1819239;78;25508;-63
2021/03/26 11:05:55;;;;;;;42.73;29.80;;;;;;;22.64;31.73;100985.88;1818913;78;25553;-64
2021/03/26 11:08:27;;;;;;;41.83;30.30;;;;;;;22.93;31.50;101000.02;1818688;78;25423;-64
2021/03/26 11:11:14;;;;;;;47.58;32.15;;;;;;;23.13;30.29;100982.14;1819085;78;25751;-64
2021/03/26 11:14:08;;;;;;;45.25;30.77;;;;;;;23.37;30.31;100975.87;1818905;78;25585;-63
2021/03/26 11:16:52;;;;;;;47.43;31.37;;;;;;;23.46;29.63;100978.31;1818138;78;25208;-63
2021/03/26 11:19:35;;;;;;;43.60;31.95;;;;;;;23.92;29.24;100967.47;1817561;78;25558;-63
2021/03/26 11:22:19;;;;;;;45.52;31.70;;;;;;;24.51;29.80;100973.73;1787689;78;25275;-62
2021/03/26 11:25:00;;;;;;;44.55;32.28;;;;;;;24.65;28.51;100966.11;1802427;77;25682;-63
2021/03/26 11:27:38;;;;;;;43.80;31.55;;;;;;;24.42;26.59;100974.09;1786691;77;25525;-65
2021/03/26 11:33:27;;;;;;;42.70;31.10;;;;;;;23.39;27.40;100962.48;1693308;84;25360;-62
2021/03/26 11:35:57;;;;;;;46.00;31.12;;;;;;;23.04;27.05;100965.08;1692038;83;25316;-63
2021/03/26 11:38:31;;;;;;;44.60;31.48;;;;;;;22.52;27.72;100957.97;1664779;86;26627;-63
2021/03/26 11:41:12;;;;;;;43.58;30.75;;;;;;;21.89;28.02;100952.55;1661214;86;25588;-63
2021/03/26 11:43:49;;;;;;;49.30;32.85;;;;;;;21.48;28.58;100957.00;1673323;84;25604;-63
2021/03/26 11:46:20;;;;;;;52.95;35.68;;;;;;;20.97;28.30;100947.81;1716721;83;26165;-63
2021/03/26 11:49:07;;;;;;;49.65;33.45;;;;;;;20.51;29.43;100956.69;1716725;83;25576;-63
2021/03/26 11:51:41;;;;;;;50.58;33.23;;;;;;;20.05;29.30;100956.47;1715358;83;25836;-64
2021/03/26 11:54:22;;;;;;;56.00;35.35;;;;;;;19.42;29.70;100954.55;1717392;83;25520;-64
2021/03/26 11:56:54;;;;;;;53.70;34.40;;;;;;;19.07;29.74;100957.14;1717455;83;25493;-63
2021/03/26 11:59:53;;;;;;;50.80;33.75;;;;;;;18.70;30.92;100953.18;1717298;83;25539;-64
2021/03/26 12:02:46;;;;;;;54.10;34.43;;;;;;;18.59;31.33;100951.48;1717708;83;25483;-64
2021/03/26 12:06:10;;;;;;;50.70;34.05;;;;;;;18.58;32.17;100945.22;1719966;83;25997;-64
2021/03/26 12:08:42;;;;;;;47.27;31.12;;;;;;;18.88;32.39;100943.52;1717185;83;25598;-64
2021/03/26 12:11:22;;;;;;;47.17;32.10;;;;;;;18.94;31.67;100935.28;1645595;83;25561;-64
2021/03/26 12:14:18;;;;;;;54.83;33.67;;;;;;;19.14;31.67;100933.47;1701323;83;26299;-64
2021/03/26 12:17:04;;;;;;;58.55;35.17;;;;;;;19.38;31.61;100939.37;1671038;83;25632;-64
2021/03/26 12:19:35;;;;;;;48.40;32.38;;;;;;;19.46;31.39;100925.83;1633528;87;27278;-64
2021/03/26 12:22:59;;;;;;;52.88;33.75;;;;;;;19.85;32.11;100916.39;1646133;85;25473;-58
2021/03/26 12:25:43;;;;;;;51.40;33.25;;;;;;;20.53;32.29;100921.42;1641652;85;25488;-58
2021/03/26 12:28:39;;;;;;;53.35;33.05;;;;;;;20.66;31.99;100915.22;1641167;87;25326;-60
2021/03/26 12:31:15;;;;;;;54.18;33.00;;;;;;;20.41;31.18;100920.76;1641215;86;26770;-59
2021/03/26 12:34:05;;;;;;;48.40;31.75;;;;;;;19.91;31.90;100922.63;1655865;86;25736;-58
2021/03/26 12:36:40;;;;;;;49.08;30.90;;;;;;;19.66;31.36;100919.27;1683319;85;25646;-58
2021/03/26 12:39:33;;;;;;;47.10;30.37;;;;;;;19.34;31.57;100919.30;1683478;85;25411;-57
2021/03/26 12:42:19;;;;;;;48.98;30.15;;;;;;;19.01;31.30;100919.59;1672688;85;25457;-57
2021/03/26 12:45:12;;;;;;;42.30;29.52;;;;;;;18.39;32.04;100908.88;1668451;86;25350;-57
2021/03/26 12:47:50;;;;;;;46.95;29.18;;;;;;;18.01;32.04;100912.02;1664236;86;25837;-59
2021/03/26 12:50:22;;;;;;;51.60;32.28;;;;;;;17.37;32.49;100914.28;1664768;85;25928;-59
2021/03/26 12:53:11;;;;;;;48.17;29.70;;;;;;;16.88;33.48;100902.66;1703257;83;25644;-57
2021/03/26 12:55:59;;;;;;;44.67;28.65;;;;;;;16.56;33.62;100905.01;1718598;83;25424;-59
2021/03/26 12:58:48;;;;;;;45.60;29.23;;;;;;;16.08;34.10;100912.38;1718059;83;25510;-56
2021/03/26 13:01:25;;;;;;;53.38;33.83;;;;;;;15.59;34.27;100913.55;1718113;83;25978;-57
2021/03/26 13:04:00;;;;;;;53.83;32.08;;;;;;;15.12;34.67;100910.84;1717655;83;25860;-58
2021/03/26 13:06:40;;;;;;;54.70;30.95;;;;;;;14.89;35.62;100909.67;1717204;83;25448;-59
2021/03/26 13:09:19;;;;;;;49.45;31.20;;;;;;;14.63;36.06;100908.92;1718470;83;25555;-57
2021/03/26 13:11:50;;;;;;;52.17;29.90;;;;;;;14.41;37.29;100903.84;1712033;83;25371;-57
2021/03/26 13:14:27;;;;;;;50.92;29.70;;;;;;;14.41;37.29;100903.84;1718492;83;25724;-59
2021/03/26 13:16:56;;;;;;;54.00;31.05;;;;;;;14.24;37.27;100895.10;1717857;83;25455;-59
2021/03/26 13:19:28;;;;;;;55.48;29.98;;;;;;;14.19;37.65;100899.34;1718471;83;25356;-61
2021/03/26 13:22:24;;;;;;;52.13;30.72;;;;;;;14.12;37.42;100901.17;1717836;83;25283;-59
2021/03/26 13:25:15;;;;;;;52.62;30.20;;;;;;;14.10;37.58;100906.70;1686607;82;25346;-59
2021/03/26 13:27:55;;;;;;;65.80;33.40;;;;;;;14.03;37.48;100895.47;1670317;83;25732;-57
2021/03/26 13:30:30;;;;;;;56.90;33.85;;;;;;;13.96;38.46;100892.67;1673650;84;25643;-58
2021/03/26 13:33:20;;;;;;;58.35;32.95;;;;;;;13.86;38.70;100897.59;1660511;83;25610;-60
2021/03/26 13:35:58;;;;;;;56.50;34.00;;;;;;;13.83;38.50;100896.31;1696129;84;25557;-59
2021/03/26 13:38:33;;;;;;;61.95;34.60;;;;;;;13.86;39.39;100890.79;1706895;84;25672;-58
2021/03/26 13:41:02;;;;;;;62.40;34.53;;;;;;;13.82;39.00;100888.73;1678769;83;25913;-58
2021/03/26 13:43:41;;;;;;;59.98;33.55;;;;;;;13.78;38.56;100893.17;1680609;83;25818;-58
2021/03/26 13:46:23;;;;;;;61.15;34.85;;;;;;;13.74;39.30;100887.31;1675800;83;25580;-57
2021/03/26 13:48:54;;;;;;;63.15;35.25;;;;;;;13.64;39.04;100891.15;1664487;85;25648;-58
2021/03/26 13:51:22;;;;;;;63.28;36.13;;;;;;;13.51;39.62;100895.56;1643080;87;25612;-57
2021/03/26 13:54:01;;;;;;;60.33;36.13;;;;;;;13.37;39.68;100895.67;1645750;87;25743;-58
2021/03/26 13:56:35;;;;;;;66.67;36.30;;;;;;;13.23;40.32;100893.02;1644048;87;25289;-59
2021/03/26 13:59:35;;;;;;;63.70;36.08;;;;;;;13.13;40.48;100893.83;1645975;87;25531;-58
2021/03/26 14:02:07;;;;;;;62.70;35.88;;;;;;;13.03;40.84;100888.91;1645800;87;25590;-58
2021/03/26 14:05:00;;;;;;;67.92;35.13;;;;;;;12.91;40.84;100897.40;1644304;87;25455;-57
2021/03/26 14:07:36;;;;;;;61.90;34.40;;;;;;;12.83;40.60;100896.22;1685546;85;25812;-58
2021/03/26 14:10:17;;;;;;;66.57;33.67;;;;;;;12.73;40.74;100895.90;1686683;85;25479;-57
2021/03/26 14:12:49;;;;;;;64.95;34.92;;;;;;;12.65;40.65;100893.92;1683725;85;25507;-56
2021/03/26 14:15:23;;;;;;;62.53;34.48;;;;;;;12.57;40.66;100892.77;1682960;85;25515;-58
2021/03/26 14:18:10;;;;;;;63.60;35.03;;;;;;;12.49;40.95;100894.28;1683992;85;25559;-57
2021/03/26 14:21:14;;;;;;;64.50;35.15;;;;;;;12.42;41.26;100894.48;1710234;83;25780;-58
2021/03/26 14:23:43;;;;;;;58.35;31.80;;;;;;;12.37;41.01;100890.52;1716327;83;25572;-58
2021/03/26 14:26:45;;;;;;;60.03;33.25;;;;;;;12.33;41.13;100882.20;1688393;83;25544;-57
2021/03/26 14:29:58;;;;;;;58.85;31.48;;;;;;;12.37;41.19;100885.09;1898176;74;34774;-58
2021/03/26 14:33:00;;;;;;;59.55;31.57;;;;;;;12.32;41.48;100884.66;1888768;76;34588;-57
2021/03/26 14:35:43;;;;;;;51.30;27.65;;;;;;;12.26;41.50;100877.20;1859535;77;25629;-57
2021/03/26 14:38:33;;;;;;;46.20;27.62;;;;;;;12.23;41.41;100872.38;1859634;77;25790;-56
2021/03/26 14:41:14;;;;;;;54.60;28.55;;;;;;;12.22;41.79;100869.41;1859644;77;25819;-57
2021/03/26 14:43:44;;;;;;;51.40;27.20;;;;;;;12.23;41.25;100872.38;1859727;77;25487;-58
2021/03/26 14:46:12;;;;;;;50.63;27.58;;;;;;;12.22;41.66;100866.69;1865931;76;25460;-57
2021/03/26 14:48:46;;;;;;;48.38;27.87;;;;;;;12.22;41.12;100873.47;1803060;79;25544;-58
2021/03/26 14:51:39;;;;;;;56.33;26.80;;;;;;;12.22;41.03;100869.41;1821488;78;25875;-58
2021/03/26 14:54:20;;;;;;;49.67;26.48;;;;;;;12.20;41.01;100869.47;1820764;78;25707;-59
2021/03/26 14:56:52;;;;;;;50.50;28.92;;;;;;;12.17;41.24;100872.80;1802353;79;25500;-59
2021/03/26 14:59:22;;;;;;;53.95;29.10;;;;;;;12.13;40.88;100867.18;1820085;78;25564;-59
2021/03/26 15:01:53;;;;;;;49.85;26.05;;;;;;;12.11;40.92;100863.97;1770545;79;25284;-59
2021/03/26 15:04:33;;;;;;;50.88;26.97;;;;;;;12.07;40.96;100859.72;1821561;78;25765;-58
2021/03/26 15:07:10;;;;;;;52.15;26.95;;;;;;;12.05;41.02;100861.12;1802939;79;25519;-57
2021/03/26 15:09:47;;;;;;;47.70;26.27;;;;;;;12.06;41.03;100861.38;1821595;78;25281;-58
2021/03/26 15:12:19;;;;;;;50.55;26.75;;;;;;;12.05;41.61;100857.84;1803128;79;25504;-60
2021/03/26 15:15:17;;;;;;;50.50;26.42;;;;;;;12.06;41.23;100854.03;1821711;78;25347;-59
2021/03/26 15:18:18;;;;;;;45.17;25.15;;;;;;;12.07;41.10;100852.12;1771581;79;25778;-60
2021/03/26 15:20:44;;;;;;;49.75;25.68;;;;;;;12.07;41.22;100850.77;1821549;78;25500;-59
2021/03/26 15:23:20;;;;;;;47.88;25.70;;;;;;;12.06;41.23;100852.68;1802963;79;25603;-57
2021/03/26 15:26:00;;;;;;;47.73;25.45;;;;;;;12.05;41.29;100850.27;1821283;78;25264;-58
2021/03/26 15:28:49;;;;;;;44.15;23.80;;;;;;;12.05;40.87;100851.63;1704804;83;25610;-61
2021/03/26 15:31:46;;;;;;;45.78;24.27;;;;;;;12.15;40.92;100845.97;1849214;76;34878;-62
2021/03/26 15:34:41;;;;;;;40.88;23.60;;;;;;;12.19;40.68;100850.23;1819515;78;25253;-61
2021/03/26 15:37:25;;;;;;;42.88;24.37;;;;;;;12.28;40.59;100842.42;1819329;78;25754;-62
2021/03/26 15:39:59;;;;;;;53.55;27.25;;;;;;;12.44;40.29;100845.56;1819236;78;25453;-61
2021/03/26 15:42:34;;;;;;;49.18;25.20;;;;;;;12.58;39.85;100845.53;1818484;78;25744;-63
2021/03/26 15:45:11;;;;;;;51.13;26.15;;;;;;;12.68;39.57;100845.28;1819246;78;25512;-60
